x

Shelikof Strait, Ak (46077) Wave Buoy

10:50am - Thu 17th Apr 2014 All times are AKDT. -8 hours from GMT.

  • Sig Wave height 2.0ft
  • Peak Period 10s
  • Average Period 5s
  • Wind
    9mph, 11mph gusts
  • Sea Temp 40°f
  • Air Temp 39°f
  • Sea Pressure 996.8mb
  • Shelikof  Strait, Ak
  • Shelikof  Strait, Ak

More Historic Weather Station data

Upgrade to MSW Pro to gain access to the past 30 days of data for over 8000 Wavebouys and Weather Stations around the globe.

Join Pro

Comparision Forecast

View Surf forecast
   
Thu 04/17 10:50am 2ft 10s 5s 9 11 mph 996.8mb 40f 39f
9:50am 2ft 9s 5s 9
mph
997mb 40f 39f
8:50am 2ft 10s 4s 9 11 mph 997.3mb 40f 39f
7:50am 2.5ft 10s 4s 11 13 mph 997.3mb 40f 39f
6:50am 2.5ft 10s 4s 11 13 mph 997.6mb 40f 39f
5:50am 2.5ft 11s 4s 13 16 mph 998mb 40f 39f
4:50am 2.5ft 10s 4s 9 11 mph 998.5mb 40f 39f
3:50am 2.5ft 10s 4s 11 13 mph 998.9mb 40f 38f
2:50am 2ft 4s 4s 13 16 mph 999.5mb 40f 38f
1:50am 2.5ft 4s 4s 16 18 mph 999.9mb 40f 39f
12:50am 2.5ft 4s 4s 13 16 mph 1000.3mb 40f 39f
Wed 04/16 11:50pm 3ft 5s 4s 16 18 mph 1000.7mb 40f 39f
10:50pm 3ft 5s 4s 18 20 mph 1001.1mb 40f 40f
9:50pm 3ft 4s 4s 18 20 mph 1001.4mb 40f 40f
8:50pm 3.5ft 5s 4s 20 25 mph 1001.4mb 40f 39f
7:50pm 3.5ft 5s 4s 20 22 mph 1001.6mb 40f 40f
6:50pm 3.5ft 5s 4s 18 22 mph 1001.8mb 40f 40f
5:50pm 4.5ft 5s 4s 20 22 mph 1001.8mb 40f 40f
4:50pm 4ft 5s 4s 20 25 mph 1002.2mb 40f 40f
3:50pm 3.5ft 4s 4s 20 25 mph 1002.7mb 40f 39f
2:50pm 3.5ft 4s 4s 18 22 mph 1003.2mb 40f 39f
1:50pm 2.5ft 4s 4s 18 20 mph 1003.7mb 40f 40f
12:50pm 2ft 3s 4s 13 16 mph 1004.2mb 40f 40f
11:50am 1.6ft 10s 4s 13 16 mph 1004.5mb 40f 40f
10:50am 2ft 10s 4s 11 13 mph 1004.8mb 40f 39f
9:50am 2ft 10s 4s 13 16 mph 1005.1mb 40f 40f
8:50am 2.5ft 11s 4s 16 20 mph 1005.1mb 40f 39f
7:50am 2.5ft 11s 4s 16 20 mph 1005.2mb 40f 40f
6:50am 2.5ft 10s 4s 16 18 mph 1005.3mb 40f 40f
5:50am 2.5ft 10s 4s 13 16 mph 1005.5mb 40f 40f
4:50am 2.5ft 10s 4s 13 16 mph 1005.8mb 40f 40f
3:50am 2.5ft 11s 4s 16 18 mph 1005.8mb 40f 40f
2:50am 2ft 3s 3s 11 16 mph 1006.1mb 40f 40f
1:50am 2.5ft 10s 4s 13 16 mph 1006.3mb 40f 40f
12:50am 2.5ft 11s 4s 13 16 mph 1006.5mb 40f 40f
Tue 04/15 11:50pm 2.5ft 11s 4s 16 20 mph 1006.8mb 40f 40f
10:50pm 2.5ft 4s 4s 18 20 mph 1007.1mb 40f 40f
9:50pm 2.5ft 3s 3s 18 20 mph 1007.1mb 40f 40f
8:50pm 2.5ft 11s 4s 16 20 mph 1007mb 40f 40f
7:50pm 2.5ft 3s 4s 16 18 mph 1007mb 40f 40f
6:50pm 2.5ft 10s 4s 16 18 mph 1007mb 40f 40f
5:50pm 2.5ft 9s 4s 16 18 mph 1007.1mb 40f 40f
3:50pm 2.5ft 10s 7s 11 13 mph 1007.4mb 40f 40f
2:50pm 2.5ft 10s 7s 9 11 mph 1007.7mb 40f 39f
1:50pm 2ft 11s 7s 7 9 mph 1007.9mb 40f 39f
12:50pm 2ft 11s 7s 7 9 mph 1008.2mb 40f 39f
11:50am 2ft 9s 7s 7 9 mph 1008.5mb 40f 39f
10:50am 2.5ft 8s 7s 4
mph
1009mb 39f 39f
9:50am 2.5ft 11s 8s 4 7 mph 1009mb 39f 39f
8:50am 2.5ft 11s 7s 7 9 mph 1008.8mb 39f 39f
7:50am 2.5ft 11s 7s 7 9 mph 1008.8mb 39f 38f
6:50am 2.5ft 11s 7s 7 9 mph 1008.7mb 39f 38f
5:50am 3ft 11s 7s 7 9 mph 1009.1mb 39f 38f
4:50am 2.5ft 11s 6s 4
mph
1009.5mb 39f 39f
3:50am 2.5ft 11s 5s 4
mph
1009.6mb 39f 39f
2:50am 2.5ft 11s 5s 9 11 mph 1009.4mb 39f 39f
1:50am 3ft 11s 5s 13 16 mph 1009.4mb 39f 39f
12:50am 3ft 11s 5s 13 16 mph 1009.8mb 39f 39f
Mon 04/14 11:50pm 2.5ft 12s 5s 13 18 mph 1010.2mb 39f 39f
10:50pm 2.5ft 11s 4s 16 18 mph 1010.5mb 39f 39f
9:50pm 2.5ft 9s 4s 16 18 mph 1010.8mb 39f 39f
8:50pm 2.5ft 10s 4s 13 16 mph 1011mb 39f 40f
7:50pm 3ft 9s 4s 16 18 mph 1011.3mb 39f 40f
6:50pm 3ft 10s 4s 16 18 mph 1011.5mb 39f 40f
5:50pm 3ft 9s 4s 18 20 mph 1011.7mb 39f 39f
4:50pm 2.5ft 9s 4s 18 20 mph 1011.9mb 39f 39f
3:50pm 2.5ft 9s 4s 16 18 mph 1012.3mb 39f 40f
2:50pm 2.5ft 8s 4s 18 20 mph 1012.4mb 39f 40f
1:50pm 2.5ft 8s 4s 16 18 mph 1012.6mb 39f 39f
12:50pm 2.5ft 4s 4s 18 20 mph 1013mb 39f 39f
11:50am 2.5ft 4s 4s 16 18 mph 1013.2mb 39f 39f
10:50am 3ft 4s 4s 18 20 mph 1013.4mb 39f 39f
9:50am 3ft 4s 4s 18 22 mph 1013.3mb 39f 39f
8:50am 3ft 4s 4s 13 18 mph 1013.2mb 39f 39f
7:50am 3ft 4s 4s 16 18 mph 1013mb 39f 39f
6:50am 3ft 4s 4s 16 20 mph 1012.6mb 39f 39f
5:50am 3ft 7s 4s 16 18 mph 1012.5mb 39f 39f
4:50am 3ft 6s 4s 11 13 mph 1012.6mb 39f 39f
3:50am 2.5ft 6s 4s 13 16 mph 1012.4mb 39f 39f
2:50am 2.5ft 6s 4s 13 16 mph 1012.3mb 39f 39f
1:50am 2.5ft 5s 5s 11 13 mph 1012.1mb 39f 39f
12:50am 2.5ft 8s 5s 11 13 mph 1012mb 39f 39f
Sun 04/13 11:50pm 3ft 9s 5s 11
mph
1012.3mb 39f 40f
10:50pm 3.5ft 6s 5s 9 11 mph 1012.7mb 39f 39f
9:50pm 3ft 7s 5s 11 16 mph 1012.7mb 39f 39f
8:50pm 3.5ft 9s 6s 9 11 mph 1012.5mb 39f 40f